createdAt,value
2022-08-24T00:00:03.480Z,20.22
2022-08-24T00:03:18.052Z,20.12
2022-08-24T00:06:06.450Z,20.10
2022-08-24T00:08:46.518Z,20.07
2022-08-24T00:11:30.876Z,20.03
2022-08-24T00:14:21.666Z,20.00
2022-08-24T00:17:16.058Z,19.97
2022-08-24T00:20:09.311Z,19.93
2022-08-24T00:22:48.227Z,19.82
2022-08-24T00:25:27.574Z,19.76
2022-08-24T00:28:32.421Z,19.77
2022-08-24T00:31:26.573Z,19.78
2022-08-24T00:34:18.439Z,19.79
2022-08-24T00:37:00.744Z,19.80
2022-08-24T00:39:56.512Z,19.76
2022-08-24T00:42:41.686Z,19.71
2022-08-24T00:45:28.086Z,19.69
2022-08-24T00:48:08.452Z,19.73
2022-08-24T00:51:02.401Z,19.75
2022-08-24T00:54:02.112Z,19.75
2022-08-24T00:56:58.386Z,19.69
2022-08-24T00:59:57.037Z,19.58
2022-08-24T01:03:24.659Z,19.60
2022-08-24T01:06:17.251Z,19.60
2022-08-24T01:09:01.280Z,19.61
2022-08-24T01:11:36.035Z,19.58
2022-08-24T01:14:21.584Z,19.55
2022-08-24T01:17:38.841Z,19.54
2022-08-24T01:20:24.197Z,19.56
2022-08-24T01:23:16.584Z,19.47
2022-08-24T01:25:55.037Z,19.47
2022-08-24T01:28:40.326Z,19.43
2022-08-24T01:31:53.896Z,19.38
2022-08-24T01:34:36.790Z,19.35
2022-08-24T01:37:20.812Z,19.35
2022-08-24T01:40:03.416Z,19.33
2022-08-24T01:42:51.218Z,19.27
2022-08-24T01:45:23.822Z,19.28
2022-08-24T01:48:00.372Z,19.25
2022-08-24T01:50:41.235Z,19.18
2022-08-24T01:53:11.416Z,19.10
2022-08-24T01:55:46.161Z,19.05
2022-08-24T01:58:44.664Z,18.98
2022-08-24T02:01:39.216Z,18.94
2022-08-24T02:04:28.538Z,18.93
2022-08-24T02:07:09.724Z,18.91
2022-08-24T02:09:53.854Z,18.97
2022-08-24T02:12:38.857Z,18.97
2022-08-24T02:15:17.283Z,18.94
2022-08-24T02:17:51.040Z,18.92
2022-08-24T02:20:22.643Z,18.91
2022-08-24T02:23:00.214Z,18.95
2022-08-24T02:25:53.644Z,18.95
2022-08-24T02:28:36.729Z,18.98
2022-08-24T02:31:11.184Z,18.99
2022-08-24T02:33:47.686Z,18.98
2022-08-24T02:36:29.051Z,19.03
2022-08-24T02:39:11.059Z,19.04
2022-08-24T02:41:44.439Z,19.04
2022-08-24T02:44:22.198Z,19.02
2022-08-24T02:47:07.004Z,18.98
2022-08-24T02:49:41.218Z,18.97
2022-08-24T02:52:16.737Z,18.97
2022-08-24T02:54:51.615Z,18.95
2022-08-24T02:57:28.886Z,18.95
2022-08-24T03:00:14.314Z,18.94
2022-08-24T03:03:00.253Z,18.94
2022-08-24T03:05:42.449Z,19.02
2022-08-24T03:08:22.652Z,19.05
2022-08-24T03:11:07.805Z,19.04
2022-08-24T03:14:00.853Z,18.99
2022-08-24T03:16:39.056Z,18.99
2022-08-24T03:19:26.053Z,19.02
2022-08-24T03:22:01.912Z,19.02
2022-08-24T03:24:48.027Z,19.02
2022-08-24T03:27:41.697Z,19.00
2022-08-24T03:30:26.607Z,19.00
2022-08-24T03:33:05.987Z,19.01
2022-08-24T03:35:40.306Z,19.03
2022-08-24T03:38:21.874Z,19.03
2022-08-24T03:40:56.899Z,19.06
2022-08-24T03:43:49.371Z,19.04
2022-08-24T03:46:39.465Z,19.07
2022-08-24T03:49:14.298Z,19.02
2022-08-24T03:51:51.278Z,19.00
2022-08-24T03:54:32.134Z,19.01
2022-08-24T03:57:10.169Z,19.02
2022-08-24T03:59:59.716Z,19.04
2022-08-24T04:02:45.333Z,19.09
2022-08-24T04:05:23.001Z,19.09
2022-08-24T04:08:43.024Z,19.13
2022-08-24T04:11:24.707Z,19.20
2022-08-24T04:14:23.614Z,19.29
2022-08-24T04:17:06.125Z,19.30
2022-08-24T04:19:58.720Z,19.31
2022-08-24T04:22:37.535Z,19.31
2022-08-24T04:25:11.586Z,19.29
2022-08-24T04:27:57.534Z,19.29
2022-08-24T04:30:29.914Z,19.30
2022-08-24T04:33:10.508Z,19.34
2022-08-24T04:35:48.608Z,19.41
2022-08-24T04:38:28.248Z,19.49
2022-08-24T04:41:06.773Z,19.51
2022-08-24T04:44:04.455Z,19.44
2022-08-24T04:46:33.441Z,19.37
2022-08-24T04:49:12.034Z,19.37
2022-08-24T04:51:51.476Z,19.36
2022-08-24T04:54:39.731Z,19.36
2022-08-24T04:57:32.060Z,19.39
2022-08-24T05:00:12.245Z,19.44
2022-08-24T05:02:54.917Z,19.51
2022-08-24T05:05:43.809Z,19.62
2022-08-24T05:08:35.291Z,19.65
2022-08-24T05:11:29.058Z,19.67
2022-08-24T05:14:13.067Z,19.70
2022-08-24T05:17:29.774Z,19.72
2022-08-24T05:20:11.071Z,19.80
2022-08-24T05:23:15.833Z,19.87
2022-08-24T05:26:11.679Z,19.85
2022-08-24T05:28:48.433Z,19.83
2022-08-24T05:31:28.446Z,19.86
2022-08-24T05:34:03.975Z,19.90
2022-08-24T05:36:52.321Z,19.92
2022-08-24T05:39:39.509Z,19.94
2022-08-24T05:42:40.104Z,19.97
2022-08-24T05:45:23.051Z,19.98
2022-08-24T05:48:10.283Z,20.01
2022-08-24T05:51:06.465Z,20.07
2022-08-24T05:54:14.303Z,20.11
2022-08-24T05:57:15.512Z,20.15
2022-08-24T06:00:04.235Z,20.18
2022-08-24T06:02:58.582Z,20.21
2022-08-24T06:05:49.812Z,20.30
2022-08-24T06:08:44.195Z,20.39
2022-08-24T06:11:58.766Z,20.54
2022-08-24T06:14:46.183Z,20.70
2022-08-24T06:17:55.644Z,20.80
2022-08-24T06:20:49.519Z,20.88
2022-08-24T06:24:03.979Z,21.00
2022-08-24T06:27:26.626Z,21.14
2022-08-24T06:30:14.095Z,21.20
2022-08-24T06:32:51.819Z,21.27
2022-08-24T06:35:23.726Z,21.26
2022-08-24T06:38:27.284Z,21.34
2022-08-24T06:41:21.486Z,21.45
2022-08-24T06:44:10.739Z,21.52
2022-08-24T06:46:45.121Z,21.61
2022-08-24T06:49:23.670Z,21.66
2022-08-24T06:52:08.267Z,21.76
2022-08-24T06:55:05.405Z,21.90
2022-08-24T06:57:42.965Z,22.04
2022-08-24T07:00:30.433Z,22.12
2022-08-24T07:03:25.587Z,22.18
2022-08-24T07:06:41.589Z,22.27
2022-08-24T07:09:32.404Z,22.38
2022-08-24T07:12:11.248Z,22.45
2022-08-24T07:15:11.489Z,22.44
2022-08-24T07:18:11.893Z,22.36
2022-08-24T07:20:54.220Z,22.37
2022-08-24T07:23:48.467Z,22.35
2022-08-24T07:26:29.133Z,22.41
2022-08-24T07:32:25.911Z,22.52
2022-08-24T07:34:56.503Z,22.59
2022-08-24T07:37:41.343Z,22.65
2022-08-24T07:40:12.079Z,22.72
2022-08-24T07:43:24.438Z,22.79
2022-08-24T07:46:20.425Z,22.92
2022-08-24T07:49:21.390Z,23.03
2022-08-24T07:52:32.692Z,23.16
2022-08-24T07:55:19.455Z,23.29
2022-08-24T07:58:01.663Z,23.33
2022-08-24T08:00:47.287Z,23.43
2022-08-24T08:03:30.425Z,23.56
2022-08-24T08:06:17.482Z,23.71
2022-08-24T08:08:56.761Z,23.83
2022-08-24T08:14:47.197Z,24.08
2022-08-24T08:17:36.103Z,24.25
2022-08-24T08:20:40.791Z,24.39
2022-08-24T08:23:48.183Z,24.48
2022-08-24T08:26:42.743Z,24.67
2022-08-24T08:29:45.728Z,24.74
2022-08-24T08:32:49.148Z,24.74
2022-08-24T08:35:23.634Z,24.75
2022-08-24T08:38:19.606Z,24.79
2022-08-24T08:41:35.104Z,24.91
2022-08-24T08:44:31.510Z,25.09
2022-08-24T08:47:38.281Z,25.20
2022-08-24T08:50:42.927Z,25.37
2022-08-24T08:53:56.659Z,25.48
2022-08-24T08:57:06.497Z,25.64
2022-08-24T09:00:16.281Z,25.74
2022-08-24T09:03:18.420Z,25.85
2022-08-24T09:06:26.302Z,25.96
2022-08-24T09:09:55.106Z,26.11
2022-08-24T09:13:24.809Z,26.18
2022-08-24T09:16:14.767Z,26.29
2022-08-24T09:19:12.479Z,26.42
2022-08-24T09:22:09.222Z,26.55
2022-08-24T09:25:05.880Z,26.70
2022-08-24T09:28:20.542Z,26.70
2022-08-24T09:34:57.395Z,26.71
2022-08-24T09:38:06.065Z,26.70
2022-08-24T09:41:42.984Z,26.64
2022-08-24T09:44:42.243Z,26.68
2022-08-24T09:47:43.197Z,26.76
2022-08-24T09:51:10.960Z,26.98
2022-08-24T09:54:36.892Z,27.35
2022-08-24T10:01:43.790Z,27.87
2022-08-24T10:04:33.196Z,27.97
2022-08-24T10:07:24.559Z,28.07
2022-08-24T10:10:27.621Z,28.07
2022-08-24T10:13:40.917Z,28.04
2022-08-24T10:17:06.633Z,28.02
2022-08-24T10:19:52.615Z,28.08
2022-08-24T10:23:15.484Z,28.16
2022-08-24T10:26:04.397Z,28.11
2022-08-24T10:28:57.731Z,28.11
2022-08-24T10:32:13.887Z,28.28
2022-08-24T10:35:17.711Z,28.59
2022-08-24T10:38:40.801Z,28.95
2022-08-24T10:42:40.929Z,29.31
2022-08-24T10:45:52.609Z,29.75
2022-08-24T10:48:51.219Z,30.17
2022-08-24T10:52:06.878Z,30.48
2022-08-24T10:56:02.483Z,31.00
2022-08-24T10:59:09.388Z,30.98
2022-08-24T11:02:30.976Z,31.04
2022-08-24T11:05:50.749Z,31.15
2022-08-24T11:09:03.884Z,31.48
2022-08-24T11:12:10.884Z,31.77
2022-08-24T11:14:57.017Z,31.77
2022-08-24T11:17:30.534Z,31.61
2022-08-24T11:20:52.876Z,31.63
2022-08-24T11:23:50.894Z,31.53
2022-08-24T11:26:56.072Z,31.66
2022-08-24T11:30:13.383Z,31.53
2022-08-24T11:33:19.877Z,31.18
2022-08-24T11:36:01.115Z,31.33
2022-08-24T11:38:51.602Z,31.42
2022-08-24T11:42:10.474Z,31.53
2022-08-24T11:44:57.490Z,31.59
2022-08-24T11:47:56.377Z,31.70
2022-08-24T11:51:15.691Z,31.69
2022-08-24T11:54:32.458Z,31.75
2022-08-24T11:57:47.515Z,31.61
2022-08-24T12:01:00.274Z,31.77
2022-08-24T12:03:59.987Z,31.89
2022-08-24T12:07:32.766Z,32.13
2022-08-24T12:11:17.147Z,32.16
2022-08-24T12:14:15.514Z,32.36
2022-08-24T12:17:13.388Z,32.47
2022-08-24T12:21:15.770Z,32.67
2022-08-24T12:24:20.173Z,32.73
2022-08-24T12:27:21.021Z,32.59
2022-08-24T12:30:07.134Z,32.51
2022-08-24T12:33:04.686Z,32.84
2022-08-24T12:36:14.800Z,33.13
2022-08-24T12:39:09.514Z,33.17
2022-08-24T12:43:07.191Z,33.12
2022-08-24T12:45:44.525Z,33.25
2022-08-24T12:49:30.384Z,33.31
2022-08-24T12:52:26.867Z,33.11
2022-08-24T12:55:52.397Z,32.82
2022-08-24T12:59:41.011Z,32.93
2022-08-24T13:02:48.084Z,33.12
2022-08-24T13:05:41.771Z,33.29
2022-08-24T13:08:45.999Z,33.39
2022-08-24T13:12:17.358Z,33.12
2022-08-24T13:16:09.288Z,33.26
2022-08-24T13:19:14.712Z,33.48
2022-08-24T13:25:49.367Z,33.15
2022-08-24T13:28:42.965Z,33.15
2022-08-24T13:31:33.655Z,33.32
2022-08-24T13:34:51.686Z,33.36
2022-08-24T13:37:46.406Z,33.23
2022-08-24T13:40:32.632Z,33.35
2022-08-24T13:44:03.320Z,33.15
2022-08-24T13:47:04.980Z,32.95
2022-08-24T13:50:13.995Z,32.93
2022-08-24T13:53:36.481Z,32.86
2022-08-24T13:56:48.637Z,32.99
2022-08-24T13:59:38.852Z,33.20
2022-08-24T14:02:53.940Z,33.14
2022-08-24T14:06:01.921Z,32.98
2022-08-24T14:08:58.970Z,33.02
2022-08-24T14:12:24.589Z,33.11
2022-08-24T14:16:18.621Z,33.14
2022-08-24T14:20:06.751Z,32.97
2022-08-24T14:23:25.480Z,32.55
2022-08-24T14:26:33.517Z,32.37
2022-08-24T14:29:51.600Z,32.06
2022-08-24T14:33:05.195Z,31.68
2022-08-24T14:36:30.369Z,31.43
2022-08-24T14:39:45.592Z,31.25
2022-08-24T14:43:21.767Z,31.13
2022-08-24T14:46:33.714Z,30.96
2022-08-24T14:50:07.015Z,30.93
2022-08-24T14:52:56.924Z,30.61
2022-08-24T14:56:04.191Z,30.47
2022-08-24T14:59:03.557Z,30.45
2022-08-24T15:02:18.260Z,30.33
2022-08-24T15:05:26.936Z,30.26
2022-08-24T15:08:44.415Z,30.19
2022-08-24T15:11:42.527Z,30.12
2022-08-24T15:14:37.608Z,30.00
2022-08-24T15:18:15.201Z,30.08
2022-08-24T15:21:21.569Z,30.13
2022-08-24T15:24:48.310Z,30.18
2022-08-24T15:28:19.783Z,30.18
2022-08-24T15:31:19.452Z,30.20
2022-08-24T15:34:16.025Z,30.22
2022-08-24T15:37:39.233Z,30.23
2022-08-24T15:40:32.865Z,29.98
2022-08-24T15:43:27.279Z,28.55
2022-08-24T15:46:29.455Z,27.47
2022-08-24T15:49:27.596Z,27.37
2022-08-24T15:52:26.698Z,27.36
2022-08-24T15:55:39.302Z,27.38
2022-08-24T15:58:47.010Z,27.42
2022-08-24T16:02:02.685Z,27.51
2022-08-24T16:05:15.404Z,27.67
2022-08-24T16:08:11.545Z,27.76
2022-08-24T16:11:26.742Z,27.82
2022-08-24T16:14:33.972Z,27.89
2022-08-24T16:17:31.049Z,27.90
2022-08-24T16:20:55.914Z,27.83
2022-08-24T16:23:33.208Z,27.89
2022-08-24T16:26:54.761Z,27.93
2022-08-24T16:29:54.310Z,27.86
2022-08-24T16:33:47.846Z,27.75
2022-08-24T16:36:56.203Z,27.74
2022-08-24T16:40:08.608Z,27.72
2022-08-24T16:43:57.487Z,27.71
2022-08-24T16:47:21.543Z,27.69
2022-08-24T16:50:13.967Z,27.71
2022-08-24T16:54:04.675Z,27.73
2022-08-24T16:57:20.030Z,27.74
2022-08-24T17:00:25.197Z,27.70
2022-08-24T17:03:47.245Z,27.70
2022-08-24T17:06:58.160Z,27.62
2022-08-24T17:14:01.950Z,27.41
2022-08-24T17:17:39.432Z,27.27
2022-08-24T17:21:00.508Z,27.21
2022-08-24T17:28:08.483Z,27.08
2022-08-24T17:31:10.051Z,27.01
2022-08-24T17:34:29.678Z,26.92
2022-08-24T17:37:53.831Z,26.87
2022-08-24T17:41:35.926Z,26.76
2022-08-24T17:44:37.742Z,26.67
2022-08-24T17:47:39.464Z,26.58
2022-08-24T17:50:39.011Z,26.51
2022-08-24T17:53:45.291Z,26.53
2022-08-24T17:56:53.771Z,26.55
2022-08-24T17:59:55.971Z,26.56
2022-08-24T18:03:16.630Z,26.54
2022-08-24T18:06:08.123Z,26.46
2022-08-24T18:09:06.411Z,26.40
2022-08-24T18:12:06.845Z,26.36
2022-08-24T18:15:08.832Z,26.31
2022-08-24T18:18:22.440Z,26.24
2022-08-24T18:21:26.716Z,26.17
2022-08-24T18:24:19.703Z,26.11
2022-08-24T18:31:45.630Z,25.83
2022-08-24T18:34:32.612Z,25.77
2022-08-24T18:37:54.223Z,25.73
2022-08-24T18:40:52.849Z,25.69
2022-08-24T18:43:55.853Z,25.60
2022-08-24T18:47:11.068Z,25.53
2022-08-24T18:50:14.642Z,25.43
2022-08-24T18:53:27.755Z,25.25
2022-08-24T18:56:46.567Z,24.97
2022-08-24T18:59:41.718Z,24.86
2022-08-24T19:02:54.170Z,24.79
2022-08-24T19:05:51.033Z,24.70
2022-08-24T19:08:51.649Z,24.60
2022-08-24T19:15:34.664Z,24.54
2022-08-24T19:19:18.691Z,24.46
2022-08-24T19:22:13.876Z,24.42
2022-08-24T19:25:06.226Z,24.31
2022-08-24T19:27:57.659Z,24.21
2022-08-24T19:31:12.759Z,24.04
2022-08-24T19:34:41.659Z,23.97
2022-08-24T19:37:57.468Z,23.88
2022-08-24T19:41:10.746Z,23.81
2022-08-24T19:44:51.649Z,23.73
2022-08-24T19:48:52.453Z,23.63
2022-08-24T19:51:50.704Z,23.51
2022-08-24T19:54:50.304Z,23.45
2022-08-24T19:58:08.530Z,23.40
2022-08-24T20:01:30.109Z,23.35
2022-08-24T20:04:16.693Z,23.27
2022-08-24T20:07:23.602Z,23.16
2022-08-24T20:10:25.996Z,23.07
2022-08-24T20:17:16.932Z,22.80
2022-08-24T20:20:22.086Z,22.75
2022-08-24T20:23:27.490Z,22.69
2022-08-24T20:26:35.199Z,22.65
2022-08-24T20:34:10.657Z,22.52
2022-08-24T20:37:14.671Z,22.47
2022-08-24T20:40:12.177Z,22.42
2022-08-24T20:43:27.967Z,22.38
2022-08-24T20:46:30.579Z,22.37
2022-08-24T20:49:20.563Z,22.33
2022-08-24T20:52:14.161Z,22.29
2022-08-24T20:55:06.004Z,22.22
2022-08-24T20:58:13.788Z,22.19
2022-08-24T21:01:07.127Z,22.13
2022-08-24T21:04:11.092Z,22.10
2022-08-24T21:06:50.910Z,22.05
2022-08-24T21:10:07.674Z,22.01
2022-08-24T21:12:59.430Z,21.97
2022-08-24T21:15:53.790Z,21.95
2022-08-24T21:18:47.229Z,21.93
2022-08-24T21:21:50.105Z,21.92
2022-08-24T21:24:37.827Z,21.94
2022-08-24T21:27:19.770Z,21.95
2022-08-24T21:29:55.904Z,21.95
2022-08-24T21:33:11.668Z,21.93
2022-08-24T21:36:00.488Z,21.92
2022-08-24T21:38:40.822Z,21.88
2022-08-24T21:41:16.660Z,21.88
2022-08-24T21:44:12.903Z,21.87
2022-08-24T21:47:01.186Z,21.90
2022-08-24T21:49:53.291Z,21.90
2022-08-24T21:52:42.208Z,21.92
2022-08-24T21:55:22.056Z,21.89
2022-08-24T21:58:29.506Z,21.87
2022-08-24T22:01:16.764Z,21.82
2022-08-24T22:04:13.835Z,21.79
2022-08-24T22:07:03.537Z,21.75
2022-08-24T22:09:45.941Z,21.70
2022-08-24T22:12:32.869Z,21.67
2022-08-24T22:15:23.425Z,21.66
2022-08-24T22:18:09.767Z,21.66
2022-08-24T22:20:50.495Z,21.67
2022-08-24T22:23:25.439Z,21.72
2022-08-24T22:26:08.981Z,21.74
2022-08-24T22:28:45.211Z,21.72
2022-08-24T22:31:41.297Z,21.71
2022-08-24T22:34:31.828Z,21.71
2022-08-24T22:37:52.896Z,21.71
2022-08-24T22:40:43.763Z,21.67
2022-08-24T22:43:52.994Z,21.63
2022-08-24T22:47:32.614Z,21.56
2022-08-24T22:50:15.168Z,21.49
2022-08-24T22:53:39.995Z,21.43
2022-08-24T22:56:29.011Z,21.39
2022-08-24T22:59:40.089Z,21.38
2022-08-24T23:05:51.846Z,21.35
2022-08-24T23:08:42.599Z,21.31
2022-08-24T23:11:37.612Z,21.28
2022-08-24T23:14:26.289Z,21.30
2022-08-24T23:17:26.085Z,21.31
2022-08-24T23:20:11.407Z,21.31
2022-08-24T23:23:02.472Z,21.30
2022-08-24T23:26:25.174Z,21.29
2022-08-24T23:29:14.617Z,21.31
2022-08-24T23:32:02.939Z,21.30
2022-08-24T23:34:50.073Z,21.30
2022-08-24T23:37:47.246Z,21.28
2022-08-24T23:40:41.359Z,21.27
2022-08-24T23:43:45.707Z,21.28
2022-08-24T23:46:38.415Z,21.28
2022-08-24T23:49:30.112Z,21.29
2022-08-24T23:52:26.130Z,21.29
2022-08-24T23:55:33.208Z,21.30
2022-08-24T23:58:11.934Z,21.31
